sensor_id;sensor_type;location;lat;lon;timestamp;pressure;altitude;pressure_sealevel;temperature;humidity
8280;BME280;8335;42.646;23.380;2023-02-14T00:01:35;142134.50;;;2.09;85.04
8280;BME280;8335;42.646;23.380;2023-02-14T00:04:02;142146.88;;;2.14;84.81
8280;BME280;8335;42.646;23.380;2023-02-14T00:06:31;142145.59;;;2.14;84.89
8280;BME280;8335;42.646;23.380;2023-02-14T00:09:00;142140.66;;;2.12;85.01
8280;BME280;8335;42.646;23.380;2023-02-14T00:11:27;142153.00;;;2.17;84.60
8280;BME280;8335;42.646;23.380;2023-02-14T00:13:54;142155.47;;;2.18;84.86
8280;BME280;8335;42.646;23.380;2023-02-14T00:16:35;142160.41;;;2.20;85.20
8280;BME280;8335;42.646;23.380;2023-02-14T00:19:01;142159.16;;;2.19;84.42
8280;BME280;8335;42.646;23.380;2023-02-14T00:21:29;142123.38;;;2.05;85.16
8280;BME280;8335;42.646;23.380;2023-02-14T00:23:57;142128.31;;;2.07;85.30
8280;BME280;8335;42.646;23.380;2023-02-14T00:26:24;142128.31;;;2.07;85.14
8280;BME280;8335;42.646;23.380;2023-02-14T00:28:51;142127.06;;;2.06;85.57
8280;BME280;8335;42.646;23.380;2023-02-14T00:31:17;142119.69;;;2.03;85.71
8280;BME280;8335;42.646;23.380;2023-02-14T00:33:44;142118.47;;;2.03;85.50
8280;BME280;8335;42.646;23.380;2023-02-14T00:36:11;142119.69;;;2.03;85.58
8280;BME280;8335;42.646;23.380;2023-02-14T00:38:38;142135.72;;;2.10;86.06
8280;BME280;8335;42.646;23.380;2023-02-14T00:41:06;142154.25;;;2.17;85.26
8280;BME280;8335;42.646;23.380;2023-02-14T00:43:32;142160.41;;;2.20;86.06
8280;BME280;8335;42.646;23.380;2023-02-14T00:45:59;142165.38;;;2.22;86.05
8280;BME280;8335;42.646;23.380;2023-02-14T00:48:26;142182.66;;;2.29;85.83
8280;BME280;8335;42.646;23.380;2023-02-14T00:50:53;142176.44;;;2.27;85.95
8280;BME280;8335;42.646;23.380;2023-02-14T00:53:19;142193.72;;;2.34;85.87
8280;BME280;8335;42.646;23.380;2023-02-14T00:55:46;142204.84;;;2.38;84.65
8280;BME280;8335;42.646;23.380;2023-02-14T00:58:14;142181.41;;;2.29;84.61
8280;BME280;8335;42.646;23.380;2023-02-14T01:00:41;142202.41;;;2.37;84.76
8280;BME280;8335;42.646;23.380;2023-02-14T01:03:08;142204.84;;;2.38;84.56
8280;BME280;8335;42.646;23.380;2023-02-14T01:05:34;142201.16;;;2.37;84.50
8280;BME280;8335;42.646;23.380;2023-02-14T01:08:01;142199.94;;;2.36;84.40
8280;BME280;8335;42.646;23.380;2023-02-14T01:10:28;142190.03;;;2.32;84.87
8280;BME280;8335;42.646;23.380;2023-02-14T01:12:55;142178.91;;;2.28;84.54
8280;BME280;8335;42.646;23.380;2023-02-14T01:15:23;142167.84;;;2.23;85.62
8280;BME280;8335;42.646;23.380;2023-02-14T01:17:50;142157.94;;;2.19;85.87
8280;BME280;8335;42.646;23.380;2023-02-14T01:20:17;142175.22;;;2.26;85.42
8280;BME280;8335;42.646;23.380;2023-02-14T01:22:44;142182.66;;;2.29;84.41
8280;BME280;8335;42.646;23.380;2023-02-14T01:25:10;142183.88;;;2.30;84.41
8280;BME280;8335;42.646;23.380;2023-02-14T01:27:37;142171.53;;;2.25;84.54
8280;BME280;8335;42.646;23.380;2023-02-14T01:30:05;142176.44;;;2.27;85.12
8280;BME280;8335;42.646;23.380;2023-02-14T01:32:33;142138.19;;;2.11;84.59
8280;BME280;8335;42.646;23.380;2023-02-14T01:35:00;142170.28;;;2.24;84.04
8280;BME280;8335;42.646;23.380;2023-02-14T01:37:28;142170.28;;;2.24;84.25
8280;BME280;8335;42.646;23.380;2023-02-14T01:39:55;142175.22;;;2.26;84.83
8280;BME280;8335;42.646;23.380;2023-02-14T01:42:22;142181.41;;;2.29;84.08
8280;BME280;8335;42.646;23.380;2023-02-14T01:45:00;142178.91;;;2.28;84.40
8280;BME280;8335;42.646;23.380;2023-02-14T01:47:30;142186.34;;;2.31;84.21
8280;BME280;8335;42.646;23.380;2023-02-14T01:50:02;142162.84;;;2.21;84.31
8280;BME280;8335;42.646;23.380;2023-02-14T01:52:33;142166.59;;;2.23;84.38
8280;BME280;8335;42.646;23.380;2023-02-14T01:55:05;142151.78;;;2.16;84.09
8280;BME280;8335;42.646;23.380;2023-02-14T01:57:36;142162.84;;;2.21;84.13
8280;BME280;8335;42.646;23.380;2023-02-14T02:00:05;142174.00;;;2.26;83.72
8280;BME280;8335;42.646;23.380;2023-02-14T02:02:51;142161.63;;;2.20;83.97
8280;BME280;8335;42.646;23.380;2023-02-14T02:05:19;142155.47;;;2.18;84.27
8280;BME280;8335;42.646;23.380;2023-02-14T02:07:49;142150.56;;;2.16;84.63
8280;BME280;8335;42.646;23.380;2023-02-14T02:10:16;142151.78;;;2.16;84.47
8280;BME280;8335;42.646;23.380;2023-02-14T02:12:43;142150.56;;;2.16;84.63
8280;BME280;8335;42.646;23.380;2023-02-14T02:15:10;142156.72;;;2.18;84.85
8280;BME280;8335;42.646;23.380;2023-02-14T02:17:45;142122.16;;;2.04;84.85
8280;BME280;8335;42.646;23.380;2023-02-14T02:23:48;142132.03;;;2.08;84.44
8280;BME280;8335;42.646;23.380;2023-02-14T02:29:42;142150.56;;;2.16;84.71
8280;BME280;8335;42.646;23.380;2023-02-14T02:32:37;142146.88;;;2.14;84.53
8280;BME280;8335;42.646;23.380;2023-02-14T02:35:29;142129.59;;;2.07;84.81
8280;BME280;8335;42.646;23.380;2023-02-14T02:38:10;142136.97;;;2.10;84.46
8280;BME280;8335;42.646;23.380;2023-02-14T02:40:46;142093.75;;;1.92;84.10
8280;BME280;8335;42.646;23.380;2023-02-14T02:43:27;142123.38;;;2.05;84.91
8280;BME280;8335;42.646;23.380;2023-02-14T02:46:00;142129.59;;;2.07;84.74
8280;BME280;8335;42.646;23.380;2023-02-14T02:48:51;142123.38;;;2.05;85.16
8280;BME280;8335;42.646;23.380;2023-02-14T02:51:27;142064.16;;;1.80;84.36
8280;BME280;8335;42.646;23.380;2023-02-14T02:54:18;142139.44;;;2.11;84.55
8280;BME280;8335;42.646;23.380;2023-02-14T02:56:49;142144.34;;;2.13;84.89
8280;BME280;8335;42.646;23.380;2023-02-14T02:59:20;142018.50;;;1.61;83.74
8280;BME280;8335;42.646;23.380;2023-02-14T03:01:53;142130.81;;;2.08;84.19
8280;BME280;8335;42.646;23.380;2023-02-14T03:04:23;142128.31;;;2.07;84.86
8280;BME280;8335;42.646;23.380;2023-02-14T03:07:10;142134.50;;;2.09;84.41
8280;BME280;8335;42.646;23.380;2023-02-14T03:09:56;142101.19;;;1.96;83.77
8280;BME280;8335;42.646;23.380;2023-02-14T03:12:49;142078.97;;;1.86;84.32
8280;BME280;8335;42.646;23.380;2023-02-14T03:15:35;142091.28;;;1.91;85.53
8280;BME280;8335;42.646;23.380;2023-02-14T03:18:07;142093.75;;;1.92;85.63
8280;BME280;8335;42.646;23.380;2023-02-14T03:20:56;142108.56;;;1.99;84.71
8280;BME280;8335;42.646;23.380;2023-02-14T03:23:30;142107.34;;;1.98;84.93
8280;BME280;8335;42.646;23.380;2023-02-14T03:26:03;142106.09;;;1.98;84.99
8280;BME280;8335;42.646;23.380;2023-02-14T03:28:39;142104.88;;;1.97;84.69
8280;BME280;8335;42.646;23.380;2023-02-14T03:31:12;142091.28;;;1.91;85.34
8280;BME280;8335;42.646;23.380;2023-02-14T03:33:50;142096.25;;;1.93;85.77
8280;BME280;8335;42.646;23.380;2023-02-14T03:36:25;142082.66;;;1.88;85.19
8280;BME280;8335;42.646;23.380;2023-02-14T03:38:58;141884.06;;;1.06;85.40
8280;BME280;8335;42.646;23.380;2023-02-14T03:41:32;142077.75;;;1.86;85.54
8280;BME280;8335;42.646;23.380;2023-02-14T03:44:04;142072.78;;;1.84;85.22
8280;BME280;8335;42.646;23.380;2023-02-14T03:46:35;142087.59;;;1.90;84.87
8280;BME280;8335;42.646;23.380;2023-02-14T03:49:09;142087.59;;;1.90;85.77
8280;BME280;8335;42.646;23.380;2023-02-14T03:51:39;142075.25;;;1.85;84.78
8280;BME280;8335;42.646;23.380;2023-02-14T03:54:10;142072.78;;;1.84;85.34
8280;BME280;8335;42.646;23.380;2023-02-14T03:56:41;142080.22;;;1.87;84.76
8280;BME280;8335;42.646;23.380;2023-02-14T03:59:14;142059.19;;;1.78;85.38
8280;BME280;8335;42.646;23.380;2023-02-14T04:01:44;142062.94;;;1.80;85.32
8280;BME280;8335;42.646;23.380;2023-02-14T04:04:13;142075.25;;;1.85;84.95
8280;BME280;8335;42.646;23.380;2023-02-14T04:06:42;142061.72;;;1.79;84.52
8280;BME280;8335;42.646;23.380;2023-02-14T04:09:10;142069.09;;;1.82;85.44
8280;BME280;8335;42.646;23.380;2023-02-14T04:11:37;142064.16;;;1.80;85.36
8280;BME280;8335;42.646;23.380;2023-02-14T04:14:04;142039.47;;;1.70;85.83
8280;BME280;8335;42.646;23.380;2023-02-14T04:16:31;142037.00;;;1.69;85.60
8280;BME280;8335;42.646;23.380;2023-02-14T04:19:19;142033.31;;;1.68;86.27
8280;BME280;8335;42.646;23.380;2023-02-14T04:21:48;142033.31;;;1.68;86.21
8280;BME280;8335;42.646;23.380;2023-02-14T04:24:17;142032.09;;;1.67;85.34
8280;BME280;8335;42.646;23.380;2023-02-14T04:26:44;142025.94;;;1.64;86.02
8280;BME280;8335;42.646;23.380;2023-02-14T04:29:35;142037.00;;;1.69;85.62
8280;BME280;8335;42.646;23.380;2023-02-14T04:32:02;142045.66;;;1.73;84.78
8280;BME280;8335;42.646;23.380;2023-02-14T04:34:29;142007.38;;;1.57;85.25
8280;BME280;8335;42.646;23.380;2023-02-14T04:36:56;142037.00;;;1.69;85.06
8280;BME280;8335;42.646;23.380;2023-02-14T04:39:24;142050.59;;;1.75;84.74
8280;BME280;8335;42.646;23.380;2023-02-14T04:41:51;142045.66;;;1.73;84.69
8280;BME280;8335;42.646;23.380;2023-02-14T04:44:18;142029.63;;;1.66;85.40
8280;BME280;8335;42.646;23.380;2023-02-14T04:46:45;142003.69;;;1.55;84.78
8280;BME280;8335;42.646;23.380;2023-02-14T04:49:12;142040.69;;;1.71;85.35
8280;BME280;8335;42.646;23.380;2023-02-14T04:51:38;142043.19;;;1.72;85.40
8280;BME280;8335;42.646;23.380;2023-02-14T04:54:05;142043.19;;;1.72;84.57
8280;BME280;8335;42.646;23.380;2023-02-14T04:56:33;142039.47;;;1.70;84.72
8280;BME280;8335;42.646;23.380;2023-02-14T04:59:00;142040.69;;;1.71;84.90
8280;BME280;8335;42.646;23.380;2023-02-14T05:01:27;142062.94;;;1.80;83.52
8280;BME280;8335;42.646;23.380;2023-02-14T05:03:54;142044.44;;;1.72;84.27
8280;BME280;8335;42.646;23.380;2023-02-14T05:06:21;142035.78;;;1.69;83.86
8280;BME280;8335;42.646;23.380;2023-02-14T05:08:48;142033.31;;;1.68;84.81
8280;BME280;8335;42.646;23.380;2023-02-14T05:11:14;142044.44;;;1.72;84.71
8280;BME280;8335;42.646;23.380;2023-02-14T05:13:43;142051.81;;;1.75;84.58
8280;BME280;8335;42.646;23.380;2023-02-14T05:16:09;142055.50;;;1.77;83.76
8280;BME280;8335;42.646;23.380;2023-02-14T05:18:36;142041.94;;;1.71;84.20
8280;BME280;8335;42.646;23.380;2023-02-14T05:21:03;142059.19;;;1.78;84.62
8280;BME280;8335;42.646;23.380;2023-02-14T05:23:30;142071.56;;;1.83;84.03
8280;BME280;8335;42.646;23.380;2023-02-14T05:25:57;142049.34;;;1.74;84.19
8280;BME280;8335;42.646;23.380;2023-02-14T05:28:24;142056.75;;;1.77;84.09
8280;BME280;8335;42.646;23.380;2023-02-14T05:30:52;142081.44;;;1.87;83.72
8280;BME280;8335;42.646;23.380;2023-02-14T05:33:21;142082.66;;;1.88;83.64
8280;BME280;8335;42.646;23.380;2023-02-14T05:35:48;142101.19;;;1.96;82.83
8280;BME280;8335;42.646;23.380;2023-02-14T05:38:15;142102.41;;;1.96;82.63
8280;BME280;8335;42.646;23.380;2023-02-14T05:40:42;142096.25;;;1.93;82.87
8280;BME280;8335;42.646;23.380;2023-02-14T05:43:09;142090.06;;;1.91;82.79
8280;BME280;8335;42.646;23.380;2023-02-14T05:45:36;142030.84;;;1.67;83.45
8280;BME280;8335;42.646;23.380;2023-02-14T05:48:04;142117.22;;;2.02;82.60
8280;BME280;8335;42.646;23.380;2023-02-14T05:50:31;142117.22;;;2.02;82.96
8280;BME280;8335;42.646;23.380;2023-02-14T05:52:59;142120.91;;;2.04;82.35
8280;BME280;8335;42.646;23.380;2023-02-14T05:55:26;142136.97;;;2.10;82.04
8280;BME280;8335;42.646;23.380;2023-02-14T05:57:53;142166.59;;;2.23;81.74
8280;BME280;8335;42.646;23.380;2023-02-14T06:00:21;142182.66;;;2.29;81.83
8280;BME280;8335;42.646;23.380;2023-02-14T06:02:48;142187.56;;;2.31;81.61
8280;BME280;8335;42.646;23.380;2023-02-14T06:05:16;142199.94;;;2.36;81.50
8280;BME280;8335;42.646;23.380;2023-02-14T06:07:44;142232.00;;;2.49;80.70
8280;BME280;8335;42.646;23.380;2023-02-14T06:10:15;142291.28;;;2.74;80.74
8280;BME280;8335;42.646;23.380;2023-02-14T06:12:42;142335.72;;;2.92;79.69
8280;BME280;8335;42.646;23.380;2023-02-14T06:15:09;142351.78;;;2.99;79.60
8280;BME280;8335;42.646;23.380;2023-02-14T06:17:35;142407.41;;;3.22;78.43
8280;BME280;8335;42.646;23.380;2023-02-14T06:20:03;142519.81;;;3.68;76.11
8280;BME280;8335;42.646;23.380;2023-02-14T06:22:31;142668.19;;;4.29;74.03
8280;BME280;8335;42.646;23.380;2023-02-14T06:24:58;142810.41;;;4.88;70.81
8280;BME280;8335;42.646;23.380;2023-02-14T06:27:25;142910.66;;;5.29;69.11
8280;BME280;8335;42.646;23.380;2023-02-14T06:29:51;143072.84;;;5.96;67.00
8280;BME280;8335;42.646;23.380;2023-02-14T06:32:18;143210.34;;;6.52;64.44
8280;BME280;8335;42.646;23.380;2023-02-14T06:34:45;143298.31;;;6.88;61.92
8280;BME280;8335;42.646;23.380;2023-02-14T06:37:12;143323.09;;;6.99;62.02
8280;BME280;8335;42.646;23.380;2023-02-14T06:39:40;143331.78;;;7.02;61.51
8280;BME280;8335;42.646;23.380;2023-02-14T06:42:07;143306.97;;;6.92;61.82
8280;BME280;8335;42.646;23.380;2023-02-14T06:44:33;143267.34;;;6.76;61.54
8280;BME280;8335;42.646;23.380;2023-02-14T06:47:00;143180.59;;;6.40;63.29
8280;BME280;8335;42.646;23.380;2023-02-14T06:49:27;143160.78;;;6.32;63.38
8280;BME280;8335;42.646;23.380;2023-02-14T06:51:54;143126.13;;;6.18;64.22
8280;BME280;8335;42.646;23.380;2023-02-14T06:54:20;143152.09;;;6.28;64.37
8280;BME280;8335;42.646;23.380;2023-02-14T06:56:48;143148.38;;;6.27;64.09
8280;BME280;8335;42.646;23.380;2023-02-14T06:59:15;143175.66;;;6.38;63.82
8280;BME280;8335;42.646;23.380;2023-02-14T07:01:42;143245.03;;;6.67;64.24
8280;BME280;8335;42.646;23.380;2023-02-14T07:04:09;143222.75;;;6.57;62.75
8280;BME280;8335;42.646;23.380;2023-02-14T07:06:36;143154.63;;;6.29;64.27
8280;BME280;8335;42.646;23.380;2023-02-14T07:09:03;143096.38;;;6.05;64.08
8280;BME280;8335;42.646;23.380;2023-02-14T07:11:30;143079.03;;;5.98;65.85
8280;BME280;8335;42.646;23.380;2023-02-14T07:13:58;143026.97;;;5.77;66.90
8280;BME280;8335;42.646;23.380;2023-02-14T07:16:25;142988.63;;;5.61;66.71
8280;BME280;8335;42.646;23.380;2023-02-14T07:18:52;142915.59;;;5.31;68.76
8280;BME280;8335;42.646;23.380;2023-02-14T07:21:18;142893.31;;;5.22;69.62
8280;BME280;8335;42.646;23.380;2023-02-14T07:23:45;142866.09;;;5.11;70.27
8280;BME280;8335;42.646;23.380;2023-02-14T07:26:14;142826.50;;;4.94;71.14
8280;BME280;8335;42.646;23.380;2023-02-14T07:28:43;142802.97;;;4.85;72.34
8280;BME280;8335;42.646;23.380;2023-02-14T07:31:11;142810.41;;;4.88;72.59
8280;BME280;8335;42.646;23.380;2023-02-14T07:33:38;142786.88;;;4.78;73.45
8280;BME280;8335;42.646;23.380;2023-02-14T07:36:05;142746.06;;;4.61;74.57
8280;BME280;8335;42.646;23.380;2023-02-14T07:38:32;142739.91;;;4.59;74.91
8280;BME280;8335;42.646;23.380;2023-02-14T07:40:59;142728.75;;;4.54;75.87
8280;BME280;8335;42.646;23.380;2023-02-14T07:43:26;142689.19;;;4.38;76.95
8280;BME280;8335;42.646;23.380;2023-02-14T07:45:53;142659.50;;;4.26;78.29
8280;BME280;8335;42.646;23.380;2023-02-14T07:48:21;142598.94;;;4.01;79.71
8280;BME280;8335;42.646;23.380;2023-02-14T07:50:49;142600.19;;;4.01;80.73
8280;BME280;8335;42.646;23.380;2023-02-14T07:53:17;142569.25;;;3.89;81.82
8280;BME280;8335;42.646;23.380;2023-02-14T07:55:48;142527.22;;;3.71;82.78
8280;BME280;8335;42.646;23.380;2023-02-14T07:58:14;142543.28;;;3.78;83.48
8280;BME280;8335;42.646;23.380;2023-02-14T08:00:41;142535.88;;;3.75;83.78
8280;BME280;8335;42.646;23.380;2023-02-14T08:03:08;142547.03;;;3.79;83.50
8280;BME280;8335;42.646;23.380;2023-02-14T08:05:36;142580.41;;;3.93;83.56
8280;BME280;8335;42.646;23.380;2023-02-14T08:08:03;142586.56;;;3.96;83.34
8280;BME280;8335;42.646;23.380;2023-02-14T08:10:30;142559.34;;;3.84;83.97
8280;BME280;8335;42.646;23.380;2023-02-14T08:12:57;142559.34;;;3.84;84.36
8280;BME280;8335;42.646;23.380;2023-02-14T08:15:29;142559.34;;;3.84;84.52
8280;BME280;8335;42.646;23.380;2023-02-14T08:18:13;142550.72;;;3.81;84.65
8280;BME280;8335;42.646;23.380;2023-02-14T08:20:43;142475.31;;;3.50;84.58
8280;BME280;8335;42.646;23.380;2023-02-14T08:23:10;142534.66;;;3.74;84.32
8280;BME280;8335;42.646;23.380;2023-02-14T08:25:37;142532.19;;;3.73;85.46
8280;BME280;8335;42.646;23.380;2023-02-14T08:28:04;142525.97;;;3.71;85.67
8280;BME280;8335;42.646;23.380;2023-02-14T08:30:32;142507.44;;;3.63;85.88
8280;BME280;8335;42.646;23.380;2023-02-14T08:32:59;142543.28;;;3.78;84.72
8280;BME280;8335;42.646;23.380;2023-02-14T08:35:25;142539.59;;;3.76;84.95
8280;BME280;8335;42.646;23.380;2023-02-14T08:37:54;142534.66;;;3.74;85.04
8280;BME280;8335;42.646;23.380;2023-02-14T08:40:21;142542.06;;;3.77;85.03
8280;BME280;8335;42.646;23.380;2023-02-14T08:42:47;142553.19;;;3.82;84.22
8280;BME280;8335;42.646;23.380;2023-02-14T08:45:14;142574.19;;;3.91;84.25
8280;BME280;8335;42.646;23.380;2023-02-14T08:47:41;142575.44;;;3.91;84.64
8280;BME280;8335;42.646;23.380;2023-02-14T08:50:10;142580.41;;;3.93;84.57
8280;BME280;8335;42.646;23.380;2023-02-14T08:52:37;142580.41;;;3.93;84.62
8280;BME280;8335;42.646;23.380;2023-02-14T08:55:09;142580.41;;;3.93;84.70
8280;BME280;8335;42.646;23.380;2023-02-14T08:57:36;142615.03;;;4.07;84.50
8280;BME280;8335;42.646;23.380;2023-02-14T09:00:04;142456.78;;;3.42;84.28
8280;BME280;8335;42.646;23.380;2023-02-14T09:02:31;142584.09;;;3.95;85.19
8280;BME280;8335;42.646;23.380;2023-02-14T09:04:57;142542.06;;;3.77;86.47
8280;BME280;8335;42.646;23.380;2023-02-14T09:07:25;142519.81;;;3.68;86.83
8280;BME280;8335;42.646;23.380;2023-02-14T09:09:52;142516.13;;;3.67;87.06
8280;BME280;8335;42.646;23.380;2023-02-14T09:12:20;142512.41;;;3.65;88.19
8280;BME280;8335;42.646;23.380;2023-02-14T09:14:47;142516.13;;;3.67;87.99
8280;BME280;8335;42.646;23.380;2023-02-14T09:17:14;142522.28;;;3.69;86.84
8280;BME280;8335;42.646;23.380;2023-02-14T09:19:41;142508.69;;;3.64;87.06
8280;BME280;8335;42.646;23.380;2023-02-14T09:22:09;142523.53;;;3.70;86.84
8280;BME280;8335;42.646;23.380;2023-02-14T09:24:38;142529.72;;;3.72;87.10
8280;BME280;8335;42.646;23.380;2023-02-14T09:27:06;142512.41;;;3.65;86.59
8280;BME280;8335;42.646;23.380;2023-02-14T09:29:34;142500.06;;;3.60;86.56
8280;BME280;8335;42.646;23.380;2023-02-14T09:32:01;142482.75;;;3.53;87.52
8280;BME280;8335;42.646;23.380;2023-02-14T09:34:29;142482.75;;;3.53;87.65
8280;BME280;8335;42.646;23.380;2023-02-14T09:36:56;142481.53;;;3.52;87.82
8280;BME280;8335;42.646;23.380;2023-02-14T09:39:23;142481.53;;;3.52;88.13
8280;BME280;8335;42.646;23.380;2023-02-14T09:44:47;142434.56;;;3.33;87.61
8280;BME280;8335;42.646;23.380;2023-02-14T09:47:20;142476.59;;;3.50;87.39
8280;BME280;8335;42.646;23.380;2023-02-14T09:49:47;142490.16;;;3.56;87.48
8280;BME280;8335;42.646;23.380;2023-02-14T09:52:18;142491.38;;;3.56;87.98
8280;BME280;8335;42.646;23.380;2023-02-14T09:54:48;142517.34;;;3.67;87.60
8280;BME280;8335;42.646;23.380;2023-02-14T09:57:22;142524.75;;;3.70;86.13
8280;BME280;8335;42.646;23.380;2023-02-14T09:59:56;142518.59;;;3.68;85.79
8280;BME280;8335;42.646;23.380;2023-02-14T10:02:39;142530.97;;;3.73;85.47
8280;BME280;8335;42.646;23.380;2023-02-14T10:05:12;142561.81;;;3.85;85.16
8280;BME280;8335;42.646;23.380;2023-02-14T10:07:52;142565.56;;;3.87;85.19
8280;BME280;8335;42.646;23.380;2023-02-14T10:10:25;142584.09;;;3.95;84.92
8280;BME280;8335;42.646;23.380;2023-02-14T10:12:55;142563.09;;;3.86;85.22
8280;BME280;8335;42.646;23.380;2023-02-14T10:15:27;142488.91;;;3.55;84.38
8280;BME280;8335;42.646;23.380;2023-02-14T10:18:01;142564.34;;;3.86;83.78
8280;BME280;8335;42.646;23.380;2023-02-14T10:20:33;142564.34;;;3.86;83.86
8280;BME280;8335;42.646;23.380;2023-02-14T10:23:04;142549.50;;;3.80;83.55
8280;BME280;8335;42.646;23.380;2023-02-14T10:25:38;142600.19;;;4.01;83.71
8280;BME280;8335;42.646;23.380;2023-02-14T10:28:11;142611.28;;;4.06;82.77
8280;BME280;8335;42.646;23.380;2023-02-14T10:30:44;142597.72;;;4.00;83.17
8280;BME280;8335;42.646;23.380;2023-02-14T10:33:16;142589.03;;;3.97;83.25
8280;BME280;8335;42.646;23.380;2023-02-14T10:35:46;142607.56;;;4.04;82.65
8280;BME280;8335;42.646;23.380;2023-02-14T10:38:25;142593.97;;;3.99;83.01
8280;BME280;8335;42.646;23.380;2023-02-14T10:41:16;142572.97;;;3.90;83.24
8280;BME280;8335;42.646;23.380;2023-02-14T10:43:52;142570.50;;;3.89;82.96
8280;BME280;8335;42.646;23.380;2023-02-14T10:46:32;142555.66;;;3.83;83.70
8280;BME280;8335;42.646;23.380;2023-02-14T10:49:11;142549.50;;;3.80;83.92
8280;BME280;8335;42.646;23.380;2023-02-14T10:51:49;142540.81;;;3.77;83.56
8280;BME280;8335;42.646;23.380;2023-02-14T10:54:20;142545.81;;;3.79;83.30
8280;BME280;8335;42.646;23.380;2023-02-14T10:56:49;142381.44;;;3.11;83.98
8280;BME280;8335;42.646;23.380;2023-02-14T10:59:23;142528.50;;;3.72;83.59
8280;BME280;8335;42.646;23.380;2023-02-14T11:01:53;142542.06;;;3.77;83.23
8280;BME280;8335;42.646;23.380;2023-02-14T11:04:22;142534.66;;;3.74;83.79
8280;BME280;8335;42.646;23.380;2023-02-14T11:06:50;142524.75;;;3.70;83.96
8280;BME280;8335;42.646;23.380;2023-02-14T11:09:17;142504.97;;;3.62;84.21
8280;BME280;8335;42.646;23.380;2023-02-14T11:11:47;142492.63;;;3.57;84.36
8280;BME280;8335;42.646;23.380;2023-02-14T11:14:24;142521.06;;;3.69;83.90
8280;BME280;8335;42.646;23.380;2023-02-14T11:16:55;142519.81;;;3.68;83.60
8280;BME280;8335;42.646;23.380;2023-02-14T11:19:25;142522.28;;;3.69;84.03
8280;BME280;8335;42.646;23.380;2023-02-14T11:21:53;142543.28;;;3.78;83.14
8280;BME280;8335;42.646;23.380;2023-02-14T11:24:26;142555.66;;;3.83;83.14
8280;BME280;8335;42.646;23.380;2023-02-14T11:26:55;142566.81;;;3.88;82.04
8280;BME280;8335;42.646;23.380;2023-02-14T11:29:28;142586.56;;;3.96;81.84
8280;BME280;8335;42.646;23.380;2023-02-14T11:32:05;142605.09;;;4.03;81.28
8280;BME280;8335;42.646;23.380;2023-02-14T11:34:36;142600.19;;;4.01;81.15
8280;BME280;8335;42.646;23.380;2023-02-14T11:37:18;142593.97;;;3.99;79.88
8280;BME280;8335;42.646;23.380;2023-02-14T11:39:51;142550.72;;;3.81;80.49
8280;BME280;8335;42.646;23.380;2023-02-14T11:42:36;142566.81;;;3.88;80.74
8280;BME280;8335;42.646;23.380;2023-02-14T11:45:05;142584.09;;;3.95;80.37
8280;BME280;8335;42.646;23.380;2023-02-14T11:47:35;142581.63;;;3.94;79.67
8280;BME280;8335;42.646;23.380;2023-02-14T11:50:18;142565.56;;;3.87;79.62
8280;BME280;8335;42.646;23.380;2023-02-14T11:52:48;142622.41;;;4.10;78.97
8280;BME280;8335;42.646;23.380;2023-02-14T11:55:23;142623.66;;;4.11;78.84
8280;BME280;8335;42.646;23.380;2023-02-14T11:57:51;142622.41;;;4.10;77.53
8280;BME280;8335;42.646;23.380;2023-02-14T12:00:20;142622.41;;;4.10;76.99
8280;BME280;8335;42.646;23.380;2023-02-14T12:02:50;142612.50;;;4.06;76.86
8280;BME280;8335;42.646;23.380;2023-02-14T12:05:19;142590.28;;;3.97;76.76
8280;BME280;8335;42.646;23.380;2023-02-14T12:07:48;142616.25;;;4.08;76.85
8280;BME280;8335;42.646;23.380;2023-02-14T12:10:25;142640.97;;;4.18;76.52
8280;BME280;8335;42.646;23.380;2023-02-14T12:12:55;142655.81;;;4.24;76.20
8280;BME280;8335;42.646;23.380;2023-02-14T12:15:25;142661.97;;;4.27;75.45
8280;BME280;8335;42.646;23.380;2023-02-14T12:17:59;142655.81;;;4.24;75.87
8280;BME280;8335;42.646;23.380;2023-02-14T12:20:37;142586.56;;;3.96;77.31
8280;BME280;8335;42.646;23.380;2023-02-14T12:23:11;142619.94;;;4.09;76.71
8280;BME280;8335;42.646;23.380;2023-02-14T12:25:43;142648.34;;;4.21;76.84
8280;BME280;8335;42.646;23.380;2023-02-14T12:28:13;142647.13;;;4.21;76.91
8280;BME280;8335;42.646;23.380;2023-02-14T12:30:41;142658.28;;;4.25;77.28
8280;BME280;8335;42.646;23.380;2023-02-14T12:33:16;142675.59;;;4.32;77.00
8280;BME280;8335;42.646;23.380;2023-02-14T12:35:50;142706.50;;;4.45;76.60
8280;BME280;8335;42.646;23.380;2023-02-14T12:38:24;142760.94;;;4.67;75.41
8280;BME280;8335;42.646;23.380;2023-02-14T12:41:07;142780.72;;;4.76;75.28
8280;BME280;8335;42.646;23.380;2023-02-14T12:43:46;142791.84;;;4.80;74.53
8280;BME280;8335;42.646;23.380;2023-02-14T12:46:42;142801.72;;;4.84;74.40
8280;BME280;8335;42.646;23.380;2023-02-14T12:49:28;142778.25;;;4.75;74.59
8280;BME280;8335;42.646;23.380;2023-02-14T12:52:03;142824.03;;;4.93;74.47
8280;BME280;8335;42.646;23.380;2023-02-14T12:54:44;142835.13;;;4.98;74.41
8280;BME280;8335;42.646;23.380;2023-02-14T12:57:21;142888.34;;;5.20;74.10
8280;BME280;8335;42.646;23.380;2023-02-14T12:59:58;142814.13;;;4.89;72.93
8280;BME280;8335;42.646;23.380;2023-02-14T13:03:00;142923.00;;;5.34;72.69
8280;BME280;8335;42.646;23.380;2023-02-14T13:05:44;142936.63;;;5.40;72.87
8280;BME280;8335;42.646;23.380;2023-02-14T13:08:26;142923.00;;;5.34;72.85
8280;BME280;8335;42.646;23.380;2023-02-14T13:11:00;142890.81;;;5.21;73.36
8280;BME280;8335;42.646;23.380;2023-02-14T13:13:39;142910.66;;;5.29;72.88
8280;BME280;8335;42.646;23.380;2023-02-14T13:16:15;142762.16;;;4.68;72.85
8280;BME280;8335;42.646;23.380;2023-02-14T13:18:48;142883.41;;;5.18;73.52
8280;BME280;8335;42.646;23.380;2023-02-14T13:21:22;142880.94;;;5.17;73.38
8280;BME280;8335;42.646;23.380;2023-02-14T13:23:52;142758.47;;;4.66;74.18
8280;BME280;8335;42.646;23.380;2023-02-14T13:26:23;142905.66;;;5.27;73.28
8280;BME280;8335;42.646;23.380;2023-02-14T13:28:55;142866.09;;;5.11;74.39
8280;BME280;8335;42.646;23.380;2023-02-14T13:31:24;142862.38;;;5.09;74.74
8280;BME280;8335;42.646;23.380;2023-02-14T13:33:53;142819.06;;;4.91;75.63
8280;BME280;8335;42.646;23.380;2023-02-14T13:36:24;142854.94;;;5.06;75.39
8280;BME280;8335;42.646;23.380;2023-02-14T13:38:53;142863.63;;;5.10;75.25